Time;durP1;ratioP1;P1;durP2;ratioP2;P2;SDS_P1;SDS_P2;PMS_P1;PMS_P2;Temp;Humidity;BMP_temperature;BMP_pressure;BME280_temperature;BME280_humidity;BME280_pressure;Samples;Min_cycle;Max_cycle;Signal;HPM_P1;HPM_P2
2024/01/10 05:48:33;;;;;;;8.25;5.88;;;;;;;-3.90;100.00;103060.91;4793282;24;20066;-77
2024/01/10 05:50:58;;;;;;;10.02;7.00;;;;;;;-3.94;100.00;103064.31;4786335;29;20043;-77
2024/01/10 05:53:24;;;;;;;8.52;5.68;;;;;;;-3.89;100.00;103062.56;4783372;29;20110;-76
2024/01/10 05:55:50;;;;;;;10.98;6.57;;;;;;;-3.95;100.00;103066.19;4780797;29;20042;-76
2024/01/10 05:58:16;;;;;;;10.95;5.63;;;;;;;-3.94;100.00;103065.16;4784932;29;20532;-76
2024/01/10 06:00:41;;;;;;;11.38;5.95;;;;;;;-4.71;100.00;103062.66;4776806;29;20035;-76
2024/01/10 06:03:07;;;;;;;10.07;5.40;;;;;;;-4.23;100.00;103065.84;4777118;29;20552;-75
2024/01/10 06:05:32;;;;;;;9.48;6.15;;;;;;;-4.20;100.00;103065.41;4783403;29;20107;-76
2024/01/10 06:07:58;;;;;;;9.45;6.22;;;;;;;-4.34;100.00;103068.25;4780545;29;20040;-75
2024/01/10 06:10:23;;;;;;;8.07;4.90;;;;;;;-4.76;100.00;103064.38;4782406;29;20495;-75
2024/01/10 06:12:49;;;;;;;18.17;5.70;;;;;;;-4.41;100.00;103067.47;4777167;29;20023;-76
2024/01/10 06:15:14;;;;;;;7.47;5.13;;;;;;;-4.67;100.00;103067.69;4781933;29;20478;-76
2024/01/10 06:17:39;;;;;;;10.27;6.22;;;;;;;-4.72;100.00;103055.53;4780566;29;20050;-75
2024/01/10 06:20:06;;;;;;;11.45;6.07;;;;;;;-4.21;100.00;103059.09;4780408;29;20065;-76
2024/01/10 06:22:32;;;;;;;11.35;5.45;;;;;;;-3.96;100.00;103042.66;4775058;29;20118;-76
2024/01/10 06:24:58;;;;;;;10.73;5.63;;;;;;;-3.88;100.00;103042.34;4779244;29;20046;-76
2024/01/10 06:27:23;;;;;;;11.45;5.30;;;;;;;-3.82;100.00;103046.06;4773089;29;20497;-75
2024/01/10 06:29:48;;;;;;;8.82;5.60;;;;;;;-3.83;100.00;103035.34;4777419;30;20406;-75
2024/01/10 06:32:16;;;;;;;11.07;4.97;;;;;;;-3.84;100.00;103050.09;4777682;29;20046;-75
2024/01/10 06:34:42;;;;;;;10.07;5.57;;;;;;;-3.91;100.00;103051.00;4777537;29;20039;-75
2024/01/10 06:37:08;;;;;;;8.68;5.30;;;;;;;-3.85;100.00;103056.63;4777008;29;20521;-75
2024/01/10 06:39:33;;;;;;;11.45;7.93;;;;;;;-4.27;100.00;103061.91;4779316;29;20039;-75
2024/01/10 06:41:59;;;;;;;6.47;5.30;;;;;;;-4.01;100.00;103061.63;4775106;29;20035;-75
2024/01/10 06:44:24;;;;;;;7.03;5.38;;;;;;;-3.94;100.00;103048.72;4777755;29;20387;-76
2024/01/10 06:46:50;;;;;;;8.52;5.45;;;;;;;-4.19;100.00;103053.41;4778025;29;20082;-76
2024/01/10 06:49:15;;;;;;;5.72;4.45;;;;;;;-4.15;100.00;103054.63;4780612;29;20039;-76
2024/01/10 06:51:40;;;;;;;9.73;5.72;;;;;;;-2.62;100.00;103044.44;4790822;29;20425;-76
2024/01/10 06:54:06;;;;;;;14.25;5.82;;;;;;;-3.39;100.00;103041.56;4777799;29;20110;-76
2024/01/10 06:56:32;;;;;;;13.07;6.07;;;;;;;-3.59;100.00;103037.16;4778013;30;20068;-75
2024/01/10 06:58:59;;;;;;;7.38;5.40;;;;;;;-3.71;100.00;103042.56;4783346;29;20050;-76
2024/01/10 07:01:24;;;;;;;11.55;6.30;;;;;;;-4.16;100.00;103042.00;4778514;29;20055;-76
2024/01/10 07:03:52;;;;;;;11.95;6.38;;;;;;;-3.99;100.00;103047.72;4778287;29;20415;-76
2024/01/10 07:06:17;;;;;;;10.43;5.57;;;;;;;-3.69;100.00;103050.53;4778817;29;20039;-77
2024/01/10 07:08:44;;;;;;;9.80;5.75;;;;;;;-3.53;100.00;103052.66;4777326;30;20046;-77
2024/01/10 07:11:11;;;;;;;18.17;6.15;;;;;;;-3.93;100.00;103055.84;4776388;29;20118;-77
2024/01/10 07:13:37;;;;;;;9.63;5.70;;;;;;;-4.18;100.00;103066.00;4779002;29;20023;-77
2024/01/10 07:16:02;;;;;;;10.93;6.07;;;;;;;-4.07;100.00;103065.25;4780228;29;20513;-77
2024/01/10 07:18:28;;;;;;;9.20;5.82;;;;;;;-4.25;100.00;103065.25;4774542;29;20039;-77
2024/01/10 07:20:53;;;;;;;9.70;4.97;;;;;;;-4.07;100.00;103062.53;4776853;29;20046;-77
2024/01/10 07:23:19;;;;;;;14.43;6.70;;;;;;;-3.88;100.00;103066.97;4779597;29;20035;-76
2024/01/10 07:25:44;;;;;;;9.30;6.03;;;;;;;-3.95;100.00;103076.31;4766648;29;20080;-77
2024/01/10 07:28:09;;;;;;;12.35;6.30;;;;;;;-3.89;100.00;103070.75;4776699;29;20059;-78
2024/01/10 07:30:35;;;;;;;11.68;6.50;;;;;;;-3.87;100.00;103078.75;4777149;29;20035;-77
2024/01/10 07:33:01;;;;;;;11.40;6.53;;;;;;;-4.02;100.00;103075.53;4775286;29;20089;-77
2024/01/10 07:35:27;;;;;;;13.20;6.55;;;;;;;-4.06;100.00;103083.34;4775758;29;20031;-78
2024/01/10 07:37:52;;;;;;;8.82;6.30;;;;;;;-4.06;100.00;103080.63;4773439;30;20039;-76
2024/01/10 07:40:18;;;;;;;7.18;5.95;;;;;;;-4.21;100.00;103071.94;4775695;29;20655;-77
2024/01/10 07:42:43;;;;;;;9.93;6.18;;;;;;;-4.06;100.00;103080.63;4774446;29;20548;-77
2024/01/10 07:45:09;;;;;;;13.45;6.80;;;;;;;-4.00;100.00;103065.22;4779578;29;20765;-78
2024/01/10 07:47:37;;;;;;;17.08;8.00;;;;;;;-4.43;100.00;103071.47;4772358;29;20518;-77
2024/01/10 07:50:07;;;;;;;8.80;5.57;;;;;;;-4.43;100.00;103066.00;4790075;29;20039;-78
2024/01/10 07:52:34;;;;;;;13.10;7.43;;;;;;;-4.25;100.00;103071.53;4778874;29;20037;-77
2024/01/10 07:54:59;;;;;;;14.73;7.90;;;;;;;-3.45;100.00;103064.41;4775670;29;20463;-76
2024/01/10 07:57:24;;;;;;;13.55;6.85;;;;;;;-4.05;100.00;103074.06;4775804;29;20043;-76
2024/01/10 07:59:50;;;;;;;11.27;6.70;;;;;;;-4.41;100.00;103058.44;4771567;29;20098;-76
2024/01/10 08:02:16;;;;;;;16.13;8.50;;;;;;;-4.39;100.00;103065.34;4776020;29;20043;-77
2024/01/10 08:04:42;;;;;;;15.05;6.93;;;;;;;-4.56;100.00;103075.16;4779194;30;20043;-77
2024/01/10 08:07:07;;;;;;;11.48;6.45;;;;;;;-4.47;100.00;103073.81;4783025;29;20045;-75
2024/01/10 08:09:33;;;;;;;13.27;7.82;;;;;;;-4.48;100.00;103072.16;4783804;29;20034;-75
2024/01/10 08:11:58;;;;;;;8.75;6.22;;;;;;;-4.46;100.00;103066.47;4778689;29;20118;-75
2024/01/10 08:14:24;;;;;;;13.02;7.20;;;;;;;-4.41;100.00;103059.25;4783228;29;20043;-75
2024/01/10 08:16:49;;;;;;;13.88;7.60;;;;;;;-4.55;100.00;103049.53;4779240;29;20043;-75
2024/01/10 08:19:14;;;;;;;12.27;7.30;;;;;;;-4.53;100.00;103044.66;4778375;29;20055;-77
2024/01/10 08:21:40;;;;;;;13.57;8.32;;;;;;;-4.36;100.00;103053.13;4777075;30;20047;-76
2024/01/10 08:24:06;;;;;;;11.43;6.97;;;;;;;-4.13;100.00;103057.97;4784168;29;20387;-76
2024/01/10 08:26:31;;;;;;;15.00;7.20;;;;;;;-4.21;100.00;103050.06;4779830;29;20452;-76
2024/01/10 08:28:57;;;;;;;14.77;7.97;;;;;;;-4.21;100.00;103064.56;4776796;30;20415;-76
2024/01/10 08:31:23;;;;;;;14.35;8.13;;;;;;;-4.21;100.00;103061.00;4778238;29;20031;-75
2024/01/10 08:33:49;;;;;;;14.32;7.28;;;;;;;-4.18;100.00;103050.44;4775936;29;21100;-76
2024/01/10 08:36:14;;;;;;;17.20;7.80;;;;;;;-4.23;100.00;103046.72;4779894;29;20122;-75
2024/01/10 08:38:40;;;;;;;13.68;7.35;;;;;;;-4.20;100.00;103057.19;4780074;29;20462;-76
2024/01/10 08:41:08;;;;;;;9.27;7.22;;;;;;;-4.06;100.00;103058.75;4779743;29;20042;-75
2024/01/10 08:43:33;;;;;;;13.25;7.50;;;;;;;-4.15;100.00;103060.94;4774015;29;20062;-76
2024/01/10 08:45:59;;;;;;;13.40;7.63;;;;;;;-4.02;100.00;103064.59;4780786;29;20039;-76
2024/01/10 08:48:24;;;;;;;12.32;6.90;;;;;;;-3.98;100.00;103066.66;4773078;29;20051;-76
2024/01/10 08:50:50;;;;;;;11.55;6.95;;;;;;;-4.03;100.00;103074.69;4778451;29;20042;-76
2024/01/10 08:53:16;;;;;;;10.05;6.72;;;;;;;-3.85;100.00;103060.22;4784489;29;20416;-76
2024/01/10 08:55:41;;;;;;;14.32;7.50;;;;;;;-3.86;100.00;103066.72;4778972;29;20460;-76
2024/01/10 08:58:07;;;;;;;12.70;8.75;;;;;;;-3.98;100.00;103072.13;4776714;29;20071;-76
2024/01/10 09:00:32;;;;;;;14.57;6.82;;;;;;;-4.10;100.00;103071.19;4778788;30;20069;-76
2024/01/10 09:02:57;;;;;;;13.02;6.68;;;;;;;-3.95;100.00;103066.19;4779520;29;20110;-76
2024/01/10 09:05:23;;;;;;;11.48;6.75;;;;;;;-3.86;100.00;103063.16;4787286;29;20036;-76
2024/01/10 09:07:49;;;;;;;12.40;6.22;;;;;;;-3.89;100.00;103054.34;4777180;30;20082;-76
2024/01/10 09:10:14;;;;;;;9.80;6.40;;;;;;;-3.84;100.00;103050.91;4775124;30;20049;-76
2024/01/10 09:12:43;;;;;;;9.90;6.63;;;;;;;-3.64;100.00;103049.88;4776286;29;20032;-75
2024/01/10 09:15:12;;;;;;;14.38;7.47;;;;;;;-3.68;100.00;103049.50;4791283;29;20039;-75
2024/01/10 09:17:42;;;;;;;11.23;6.53;;;;;;;-3.68;100.00;103055.78;4775922;29;20481;-75
2024/01/10 09:20:08;;;;;;;16.27;7.13;;;;;;;-3.59;100.00;103059.06;4793929;29;20467;-75
2024/01/10 09:22:33;;;;;;;12.25;6.35;;;;;;;-3.64;100.00;103067.13;4776680;29;20645;-75
2024/01/10 09:25:03;;;;;;;10.77;6.57;;;;;;;-3.72;100.00;103065.53;4781376;30;20055;-77
2024/01/10 09:27:29;;;;;;;12.23;6.70;;;;;;;-3.71;100.00;103067.22;4783089;29;20376;-73
2024/01/10 09:29:55;;;;;;;10.68;6.38;;;;;;;-3.61;100.00;103066.66;4789619;29;20093;-75
2024/01/10 09:32:20;;;;;;;12.70;6.85;;;;;;;-3.57;100.00;103073.34;4778592;30;20128;-75
2024/01/10 09:34:45;;;;;;;12.10;7.32;;;;;;;-3.50;100.00;103068.66;4777245;29;20368;-74
2024/01/10 09:37:11;;;;;;;11.02;7.05;;;;;;;-3.47;100.00;103062.69;4776590;29;20031;-73
2024/01/10 09:39:36;;;;;;;11.73;6.90;;;;;;;-3.33;100.00;103065.25;4792198;29;20035;-75
2024/01/10 09:42:02;;;;;;;12.20;6.45;;;;;;;-3.51;100.00;103072.44;4786069;29;20077;-74
2024/01/10 09:44:29;;;;;;;16.17;6.82;;;;;;;-3.41;100.00;103065.59;4779468;29;20407;-75
2024/01/10 09:46:55;;;;;;;11.73;6.60;;;;;;;-3.40;100.00;103064.53;4782339;29;20062;-73
2024/01/10 09:49:23;;;;;;;8.98;5.38;;;;;;;-3.33;100.00;103055.16;4777434;29;20494;-75
2024/01/10 09:51:49;;;;;;;10.73;7.15;;;;;;;-3.30;100.00;103062.91;4777922;30;20039;-73
2024/01/10 09:54:15;;;;;;;16.73;7.47;;;;;;;-3.43;100.00;103074.03;4778212;29;20063;-72
2024/01/10 09:56:42;;;;;;;12.38;6.30;;;;;;;-3.29;100.00;103064.59;4780553;29;20054;-73
2024/01/10 09:59:10;;;;;;;12.52;6.97;;;;;;;-3.16;100.00;103057.25;4776714;29;20043;-73
2024/01/10 10:01:39;;;;;;;10.68;6.80;;;;;;;-3.32;100.00;103059.56;4776639;29;20109;-73
2024/01/10 10:04:04;;;;;;;9.25;6.28;;;;;;;-3.30;100.00;103067.56;4774841;30;20121;-73
2024/01/10 10:06:30;;;;;;;9.45;5.60;;;;;;;-3.01;100.00;103065.06;4777694;30;20043;-74
2024/01/10 10:08:56;;;;;;;10.20;6.65;;;;;;;-3.13;100.00;103067.75;4780877;29;20052;-72
2024/01/10 10:11:21;;;;;;;10.95;7.13;;;;;;;-3.20;100.00;103056.91;4777592;30;20085;-73
2024/01/10 10:13:47;;;;;;;9.45;6.15;;;;;;;-3.04;100.00;103046.34;4774829;30;20039;-73
2024/01/10 10:16:15;;;;;;;12.23;6.38;;;;;;;-3.23;100.00;103051.88;4775668;30;20035;-72
2024/01/10 10:18:44;;;;;;;16.13;6.18;;;;;;;-3.11;100.00;103044.53;4775019;29;20058;-73
2024/01/10 10:21:12;;;;;;;11.45;5.75;;;;;;;-3.05;99.23;103050.16;4787078;29;20106;-72
2024/01/10 10:23:39;;;;;;;8.38;5.25;;;;;;;-2.97;99.56;103060.78;4776533;29;20034;-76
2024/01/10 10:26:20;;;;;;;11.10;6.80;;;;;;;-2.96;96.70;103062.47;4772842;29;20680;-73
2024/01/10 10:28:47;;;;;;;11.63;5.80;;;;;;;-2.93;95.12;103061.97;4770764;30;20133;-74
2024/01/10 10:31:13;;;;;;;17.30;8.10;;;;;;;-2.87;93.29;103063.78;4772952;30;20121;-74
2024/01/10 10:33:39;;;;;;;12.27;5.97;;;;;;;-2.91;95.72;103057.09;4777885;29;20514;-74
2024/01/10 10:36:05;;;;;;;11.60;6.45;;;;;;;-2.94;94.96;103049.38;4777685;30;20133;-74
2024/01/10 10:38:31;;;;;;;11.10;6.57;;;;;;;-2.98;94.93;103043.50;4771432;30;20407;-77
2024/01/10 10:40:59;;;;;;;11.15;5.40;;;;;;;-2.83;96.35;103051.28;4773389;29;20031;-77
2024/01/10 10:43:25;;;;;;;8.82;5.55;;;;;;;-2.77;94.26;103033.91;4776535;29;20497;-76
2024/01/10 10:45:51;;;;;;;10.38;6.03;;;;;;;-2.66;95.08;103033.13;4780891;29;20027;-77
2024/01/10 10:48:20;;;;;;;8.10;5.50;;;;;;;-2.77;91.23;103038.56;4780476;29;20107;-74
2024/01/10 10:51:03;;;;;;;9.90;6.05;;;;;;;-2.69;90.92;103030.00;4778177;30;20053;-75
2024/01/10 10:53:29;;;;;;;8.27;5.05;;;;;;;-2.86;89.35;103040.81;4770541;29;20028;-72
2024/01/10 10:55:57;;;;;;;11.23;6.18;;;;;;;-2.70;94.04;103034.66;4778225;29;20043;-72
2024/01/10 10:58:22;;;;;;;14.57;6.13;;;;;;;-2.64;88.85;103037.53;4781705;29;20023;-73
2024/01/10 11:00:48;;;;;;;11.63;5.88;;;;;;;-2.73;86.24;103037.84;4775891;29;20031;-72
2024/01/10 11:03:16;;;;;;;7.97;4.57;;;;;;;-2.71;82.54;103043.13;4770258;29;20110;-73
2024/01/10 11:05:42;;;;;;;9.05;5.22;;;;;;;-2.57;87.92;103035.50;4779199;29;20047;-73
2024/01/10 11:08:12;;;;;;;10.48;6.20;;;;;;;-2.48;83.76;103045.06;4780976;29;20035;-72
2024/01/10 11:10:40;;;;;;;9.80;5.47;;;;;;;-2.41;83.16;103054.00;4779328;29;20467;-72
2024/01/10 11:13:37;;;;;;;9.00;5.07;;;;;;;-2.44;83.18;103032.56;4778047;29;20522;-72
2024/01/10 11:16:25;;;;;;;7.13;4.60;;;;;;;-2.34;80.74;103040.16;4780354;29;20521;-72
2024/01/10 11:19:15;;;;;;;9.57;5.18;;;;;;;-2.35;83.24;103042.09;4770362;29;20035;-73
2024/01/10 11:22:15;;;;;;;8.85;4.65;;;;;;;-2.33;82.65;103039.94;4781942;30;20043;-74
2024/01/10 11:24:40;;;;;;;7.03;4.65;;;;;;;-2.11;79.05;103044.81;4776879;30;20043;-72
2024/01/10 11:27:10;;;;;;;9.95;5.05;;;;;;;-2.13;79.39;103042.34;4780042;29;20089;-72
2024/01/10 11:29:40;;;;;;;7.63;4.45;;;;;;;-2.10;75.58;103039.13;4776222;29;20038;-74
2024/01/10 11:32:16;;;;;;;8.98;5.35;;;;;;;-1.94;73.54;103043.06;4777606;29;20039;-75
2024/01/10 11:34:53;;;;;;;8.43;4.75;;;;;;;-2.01;75.00;103041.50;4772714;29;20442;-75
2024/01/10 11:37:18;;;;;;;8.15;4.68;;;;;;;-2.03;74.28;103033.50;4772778;30;20035;-73
2024/01/10 11:39:44;;;;;;;6.90;4.60;;;;;;;-2.00;75.60;103029.44;4775178;29;20046;-73
2024/01/10 11:42:10;;;;;;;7.15;4.82;;;;;;;-2.05;75.03;103027.41;4777433;29;20038;-73
2024/01/10 11:44:47;;;;;;;9.30;5.20;;;;;;;-1.95;77.19;103024.91;4778780;29;20066;-73
2024/01/10 11:47:14;;;;;;;9.23;5.70;;;;;;;-1.98;73.99;103030.88;4775448;29;20048;-72
2024/01/10 11:49:40;;;;;;;7.20;5.88;;;;;;;-1.93;72.88;103025.50;4768447;30;20137;-73
2024/01/10 11:52:05;;;;;;;9.43;5.20;;;;;;;-1.70;75.82;103027.38;4775582;30;20033;-73
2024/01/10 11:54:44;;;;;;;8.45;5.15;;;;;;;-1.91;73.84;103026.09;4776731;29;20050;-72
2024/01/10 11:57:22;;;;;;;6.50;4.28;;;;;;;-1.63;73.42;103027.22;4774593;29;20069;-75
2024/01/10 11:59:53;;;;;;;6.65;5.07;;;;;;;-1.80;72.00;103026.31;4793455;29;20027;-75
2024/01/10 12:02:20;;;;;;;8.25;4.15;;;;;;;-1.80;70.71;103020.81;4781837;29;20141;-75
2024/01/10 12:04:46;;;;;;;6.82;4.93;;;;;;;-1.73;72.89;103016.88;4776240;29;20526;-75
2024/01/10 12:07:12;;;;;;;9.52;5.40;;;;;;;-1.75;73.52;103029.16;4778613;29;20042;-75
2024/01/10 12:09:37;;;;;;;11.25;6.57;;;;;;;-1.76;73.83;103022.00;4779003;30;20035;-75
2024/01/10 12:12:03;;;;;;;8.38;5.38;;;;;;;-1.74;71.68;103020.69;4778994;29;20447;-75
2024/01/10 12:14:30;;;;;;;8.95;5.35;;;;;;;-1.68;71.47;103022.47;4780722;29;20039;-76
2024/01/10 12:16:56;;;;;;;7.45;4.90;;;;;;;-1.59;74.39;103014.69;4778392;29;20092;-76
2024/01/10 12:19:21;;;;;;;6.10;4.07;;;;;;;-1.56;70.93;103019.69;4777307;29;20059;-76
2024/01/10 12:21:48;;;;;;;7.72;4.57;;;;;;;-1.60;72.48;103009.41;4779737;29;20074;-75
2024/01/10 12:24:14;;;;;;;12.88;5.80;;;;;;;-1.58;72.00;103019.09;4782059;30;20031;-75
2024/01/10 12:26:46;;;;;;;7.45;4.53;;;;;;;-1.51;69.60;103014.31;4778006;29;20175;-75
2024/01/10 12:29:11;;;;;;;;;;;;;;;-1.54;74.08;103012.06;4781125;30;20043;-75
2024/01/10 12:31:38;;;;;;;11.95;5.20;;;;;;;-1.55;67.69;103007.63;4776406;29;20295;-76
2024/01/10 12:34:04;;;;;;;5.60;4.72;;;;;;;-1.50;68.39;103004.97;4775999;29;20878;-76
2024/01/10 12:36:29;;;;;;;5.82;4.85;;;;;;;-1.58;70.31;102994.41;4775469;29;20126;-77
2024/01/10 12:38:54;;;;;;;9.55;4.93;;;;;;;-1.36;66.84;102993.72;4783148;29;20039;-76
2024/01/10 12:41:20;;;;;;;9.52;4.43;;;;;;;-1.36;69.07;102994.53;4781606;29;20043;-76
2024/01/10 12:43:53;;;;;;;7.22;4.55;;;;;;;-1.47;68.88;102993.50;4776379;29;20069;-76
2024/01/10 12:46:18;;;;;;;9.63;5.57;;;;;;;-1.42;68.75;102994.69;4775290;29;20036;-75
2024/01/10 12:48:43;;;;;;;8.27;5.15;;;;;;;-1.36;67.15;102993.72;4781888;29;20468;-75
2024/01/10 12:51:13;;;;;;;8.15;5.10;;;;;;;-1.24;68.36;102997.25;4784818;29;20035;-77
2024/01/10 12:53:43;;;;;;;9.90;5.25;;;;;;;-1.21;66.66;102983.00;4783729;29;20039;-76
2024/01/10 12:56:13;;;;;;;8.40;5.72;;;;;;;-1.34;75.32;102986.06;4774706;29;20070;-76
2024/01/10 12:58:39;;;;;;;7.85;4.95;;;;;;;-1.31;67.15;102989.13;4775911;29;20138;-76
2024/01/10 13:01:05;;;;;;;6.30;4.80;;;;;;;-1.29;68.54;102988.88;4782437;29;20053;-76
2024/01/10 13:03:30;;;;;;;11.95;6.07;;;;;;;-1.24;66.75;102987.09;4779453;29;20027;-76
2024/01/10 13:05:56;;;;;;;9.57;5.80;;;;;;;-1.19;67.26;102980.84;4778818;29;20031;-75
2024/01/10 13:08:21;;;;;;;9.50;5.15;;;;;;;-1.17;69.40;102978.69;4779902;29;20039;-76
2024/01/10 13:10:49;;;;;;;7.85;4.63;;;;;;;-1.14;68.99;102986.44;4778957;29;20042;-75
2024/01/10 13:13:17;;;;;;;11.25;5.75;;;;;;;-1.15;68.60;102976.53;4781549;29;20562;-76
2024/01/10 13:15:42;;;;;;;7.85;5.05;;;;;;;-1.03;67.25;102965.47;4787653;29;20050;-75
2024/01/10 13:18:09;;;;;;;10.60;5.63;;;;;;;-1.07;65.55;102969.78;4779800;29;20062;-76
2024/01/10 13:20:35;;;;;;;7.78;4.38;;;;;;;-1.14;68.10;102963.59;4776366;29;20035;-76
2024/01/10 13:23:01;;;;;;;8.05;4.57;;;;;;;-0.97;64.48;102971.88;4779857;29;20058;-76
2024/01/10 13:25:27;;;;;;;11.10;5.03;;;;;;;-1.02;64.89;102967.94;4777888;30;20046;-76
2024/01/10 13:27:53;;;;;;;7.78;4.45;;;;;;;-1.05;64.92;102973.97;4779937;29;20473;-76
2024/01/10 13:30:19;;;;;;;6.72;4.47;;;;;;;-0.94;64.26;102969.47;4775163;29;20097;-76
2024/01/10 13:32:46;;;;;;;8.63;5.00;;;;;;;-1.02;66.80;102970.69;4777217;29;20436;-76
2024/01/10 13:35:16;;;;;;;6.60;4.60;;;;;;;-0.89;64.05;102971.47;4778415;29;20177;-76
2024/01/10 13:37:42;;;;;;;8.70;5.55;;;;;;;-0.80;64.14;102974.63;4776803;29;20487;-75
2024/01/10 13:40:09;;;;;;;8.27;4.88;;;;;;;-0.79;64.09;102971.63;4775019;29;20046;-76
2024/01/10 13:42:41;;;;;;;7.95;4.57;;;;;;;-0.82;65.21;102972.16;4777091;29;20390;-76
2024/01/10 13:45:07;;;;;;;7.93;4.53;;;;;;;-0.93;67.63;102976.63;4777890;30;20453;-75
2024/01/10 13:47:34;;;;;;;10.02;5.38;;;;;;;0.25;91.90;102972.84;4773775;29;20505;-76
2024/01/10 13:50:00;;;;;;;8.77;4.57;;;;;;;-0.62;69.73;102975.22;4774055;29;20456;-75
2024/01/10 13:52:25;;;;;;;8.52;5.25;;;;;;;-0.77;69.97;102969.47;4776724;29;20039;-75
2024/01/10 13:54:51;;;;;;;6.28;4.25;;;;;;;-0.83;68.65;102970.47;4779250;29;20042;-75
2024/01/10 13:57:17;;;;;;;8.40;5.90;;;;;;;-0.82;70.03;102974.91;4777112;30;20034;-75
2024/01/10 13:59:44;;;;;;;12.32;5.93;;;;;;;-0.79;69.66;102971.63;4776159;29;20146;-75
2024/01/10 14:02:10;;;;;;;8.80;4.82;;;;;;;-0.79;70.34;102979.88;4773884;29;20173;-76
2024/01/10 14:04:36;;;;;;;11.10;5.88;;;;;;;-0.88;69.58;102973.97;4774641;29;20054;-75
2024/01/10 14:07:01;;;;;;;9.90;4.97;;;;;;;-0.84;68.86;102979.81;4773197;29;20062;-75
2024/01/10 14:09:27;;;;;;;8.43;4.55;;;;;;;-0.95;69.65;102972.47;4775110;29;20167;-76
2024/01/10 14:11:52;;;;;;;8.60;5.22;;;;;;;-0.79;71.76;102982.63;4778645;29;20039;-77
2024/01/10 14:14:18;;;;;;;8.60;4.53;;;;;;;-0.73;68.57;102986.31;4776797;30;20672;-77
2024/01/10 14:16:43;;;;;;;9.88;4.65;;;;;;;-0.82;69.30;102977.66;4779343;30;20038;-77
2024/01/10 14:19:09;;;;;;;9.32;5.05;;;;;;;-0.96;70.61;102974.38;4777596;29;20031;-77
2024/01/10 14:21:34;;;;;;;7.97;4.90;;;;;;;-0.93;73.33;102975.78;4777319;30;20027;-75
2024/01/10 14:24:00;;;;;;;8.20;4.65;;;;;;;-0.90;70.48;102970.63;4776471;29;20571;-76
2024/01/10 14:26:26;;;;;;;7.40;5.55;;;;;;;-0.87;73.51;102980.31;4778768;29;20028;-77
2024/01/10 14:28:55;;;;;;;10.05;5.13;;;;;;;-0.85;73.15;102983.63;4781239;29;20035;-76
2024/01/10 14:31:21;;;;;;;12.05;6.65;;;;;;;-0.93;73.61;102973.03;4774611;29;20039;-76
2024/01/10 14:33:47;;;;;;;9.27;4.53;;;;;;;-1.11;74.61;102974.94;4777756;29;20038;-75
2024/01/10 14:36:12;;;;;;;8.32;5.03;;;;;;;-1.00;78.91;102972.38;4780718;29;20414;-77
2024/01/10 14:38:42;;;;;;;12.23;5.88;;;;;;;-1.08;76.63;102974.44;4776798;29;20410;-76
2024/01/10 14:41:07;;;;;;;9.25;5.20;;;;;;;-1.08;77.18;102979.94;4779898;29;20533;-76
2024/01/10 14:43:33;;;;;;;10.40;6.07;;;;;;;-0.89;78.69;102982.47;4777812;29;20035;-76
2024/01/10 14:45:59;;;;;;;13.07;6.00;;;;;;;-1.16;81.15;102983.13;4778241;29;20043;-76
2024/01/10 14:48:24;;;;;;;11.80;5.57;;;;;;;-1.13;80.47;102982.59;4776190;29;20083;-77
2024/01/10 14:50:49;;;;;;;11.68;5.35;;;;;;;-1.09;81.12;102982.94;4778001;29;20126;-77
2024/01/10 14:53:15;;;;;;;10.90;6.00;;;;;;;-1.20;81.56;102981.06;4776861;29;20047;-76
2024/01/10 14:55:43;;;;;;;10.40;5.70;;;;;;;-1.12;84.69;102976.00;4778937;29;20067;-76
2024/01/10 14:58:09;;;;;;;10.13;5.50;;;;;;;-1.26;82.17;102977.41;4782243;30;20509;-77
2024/01/10 15:00:34;;;;;;;13.93;5.03;;;;;;;-1.23;85.56;102972.25;4774532;29;20043;-77
2024/01/10 15:02:59;;;;;;;12.88;5.53;;;;;;;-1.21;89.09;102980.25;4774257;29;20498;-76
2024/01/10 15:05:26;;;;;;;10.77;6.13;;;;;;;-1.11;85.26;102977.69;4778885;29;20031;-76
2024/01/10 15:07:52;;;;;;;8.90;5.03;;;;;;;-1.13;92.69;102982.59;4782268;29;20102;-77
2024/01/10 15:10:17;;;;;;;12.27;5.65;;;;;;;-1.21;87.37;102979.44;4777918;29;20487;-76
2024/01/10 15:12:43;;;;;;;7.97;5.13;;;;;;;-1.34;89.05;102980.56;4795921;29;20103;-75
2024/01/10 15:15:09;;;;;;;12.88;5.68;;;;;;;-1.21;89.54;102980.25;4775060;29;20138;-75
2024/01/10 15:17:34;;;;;;;13.32;7.25;;;;;;;-1.09;87.89;102971.97;4783296;29;20036;-73
2024/01/10 15:20:00;;;;;;;9.63;5.63;;;;;;;-1.36;89.86;102977.22;4781613;29;20026;-73
2024/01/10 15:22:27;;;;;;;9.38;5.22;;;;;;;-1.36;91.88;102979.97;4778896;29;20093;-73
2024/01/10 15:24:52;;;;;;;10.18;5.20;;;;;;;-1.36;89.74;102977.22;4775039;29;20047;-73
2024/01/10 15:27:18;;;;;;;9.48;4.65;;;;;;;-1.60;90.07;102976.47;4781885;29;20039;-75
2024/01/10 15:29:43;;;;;;;13.52;5.97;;;;;;;-1.33;90.10;102982.22;4777441;29;20130;-76
2024/01/10 15:32:09;;;;;;;8.60;5.47;;;;;;;-1.36;93.41;102972.56;4777370;29;20045;-75
2024/01/10 15:34:34;;;;;;;8.75;5.32;;;;;;;-1.32;96.29;102972.91;4782399;29;20664;-75
2024/01/10 15:36:59;;;;;;;11.95;6.10;;;;;;;-1.23;95.22;102987.91;4780471;29;20100;-75
2024/01/10 15:39:25;;;;;;;13.68;6.28;;;;;;;-1.25;91.59;102992.81;4781480;30;20059;-75
2024/01/10 15:41:51;;;;;;;13.10;5.38;;;;;;;-1.31;92.58;102988.31;4777053;29;20398;-75
2024/01/10 15:44:20;;;;;;;6.43;3.10;;;;;;;1.85;100.00;102975.16;4782538;29;20036;-76
2024/01/10 15:46:45;;;;;;;15.65;6.63;;;;;;;0.03;83.22;102991.31;4776979;29;20123;-76
2024/01/10 15:49:11;;;;;;;12.68;6.90;;;;;;;-1.08;92.72;102985.44;4773680;29;20126;-75
2024/01/10 15:51:37;;;;;;;11.77;7.07;;;;;;;-1.33;96.28;102987.72;4778859;30;20031;-75
2024/01/10 15:54:02;;;;;;;11.73;6.15;;;;;;;-1.23;100.00;102987.91;4781433;29;20058;-75
2024/01/10 15:56:28;;;;;;;9.30;6.13;;;;;;;-1.21;100.00;102991.25;4781784;29;20502;-75
2024/01/10 15:58:53;;;;;;;10.60;6.03;;;;;;;-1.31;100.00;102996.53;4779584;29;20035;-76
2024/01/10 16:01:19;;;;;;;12.05;5.72;;;;;;;-1.32;100.00;102989.41;4789528;29;20031;-77
2024/01/10 16:03:45;;;;;;;14.38;7.43;;;;;;;-1.32;99.97;102994.88;4774918;29;20155;-76
2024/01/10 16:06:10;;;;;;;12.55;6.90;;;;;;;-1.66;100.00;102994.78;4775898;29;20162;-76
2024/01/10 16:08:36;;;;;;;11.82;7.25;;;;;;;-1.50;100.00;102988.47;4781068;30;20482;-75
2024/01/10 16:11:01;;;;;;;21.85;7.65;;;;;;;-1.53;100.00;102988.16;4781296;29;20095;-77
2024/01/10 16:13:27;;;;;;;18.67;9.55;;;;;;;-1.83;100.00;102980.97;4780578;29;20522;-76
2024/01/10 16:15:55;;;;;;;12.05;7.47;;;;;;;-1.94;100.00;102988.16;4777238;29;20100;-77
2024/01/10 16:18:24;;;;;;;10.40;6.38;;;;;;;-1.74;100.00;102984.16;4789531;29;20088;-76
2024/01/10 16:20:50;;;;;;;11.63;6.60;;;;;;;-1.80;100.00;102996.13;4779793;29;20066;-76
2024/01/10 16:23:15;;;;;;;8.85;6.55;;;;;;;-1.70;100.00;102985.34;4777675;29;20529;-78
2024/01/10 16:25:41;;;;;;;11.98;6.30;;;;;;;-1.62;100.00;102993.22;4774194;29;20511;-76
2024/01/10 16:28:06;;;;;;;13.77;6.32;;;;;;;-1.45;100.00;103002.34;4769213;29;20126;-77
2024/01/10 16:30:31;;;;;;;11.07;5.78;;;;;;;-1.61;100.00;103008.59;4780851;29;20401;-76
2024/01/10 16:32:57;;;;;;;11.55;6.97;;;;;;;-1.70;100.00;103010.06;4778077;29;20419;-76
2024/01/10 16:35:22;;;;;;;14.93;6.65;;;;;;;-1.84;100.00;103017.72;4783401;29;20163;-76
2024/01/10 16:37:48;;;;;;;12.88;6.22;;;;;;;-1.73;100.00;103014.13;4777261;29;20043;-74
2024/01/10 16:40:17;;;;;;;27.50;12.80;;;;;;;-1.58;100.00;103013.63;4781747;30;20071;-74
2024/01/10 16:42:42;;;;;;;14.93;6.82;;;;;;;-1.69;100.00;103011.72;4777038;29;20070;-74
2024/01/10 16:45:08;;;;;;;12.35;5.63;;;;;;;-1.78;100.00;103007.69;4782970;29;20150;-74
2024/01/10 16:47:33;;;;;;;9.88;6.10;;;;;;;-1.73;100.00;103011.38;4768511;29;20518;-74
2024/01/10 16:49:58;;;;;;;13.45;6.93;;;;;;;-1.72;100.00;103012.22;4781007;29;20039;-75
2024/01/10 16:52:24;;;;;;;12.68;6.10;;;;;;;-1.84;100.00;103010.31;4779334;29;20407;-74
2024/01/10 16:54:49;;;;;;;9.35;7.05;;;;;;;-1.85;100.00;103019.63;4781311;29;20051;-74
2024/01/10 16:57:17;;;;;;;15.40;9.25;;;;;;;-1.91;100.00;103020.59;4784787;29;20039;-73
2024/01/10 16:59:43;;;;;;;16.30;8.57;;;;;;;-1.85;100.00;103022.38;4776666;29;20039;-75
2024/01/10 17:02:08;;;;;;;11.20;6.20;;;;;;;-1.82;100.00;103033.97;4780573;30;20118;-75